Time;durP1;ratioP1;P1;durP2;ratioP2;P2;SDS_P1;SDS_P2;PMS_P1;PMS_P2;Temp;Humidity;BMP_temperature;BMP_pressure;BME280_temperature;BME280_humidity;BME280_pressure;Samples;Min_cycle;Max_cycle;Signal;HPM_P1;HPM_P2
2022/10/09 00:01:09;;;;;;;;;;;9.00;81.60;;;;;;5007458;28;19920;-78
2022/10/09 00:03:35;;;;;;;;;;;8.90;81.90;;;;;;5011617;28;20414;-77
2022/10/09 00:06:01;;;;;;;;;;;9.00;81.50;;;;;;5012185;28;19919;-76
2022/10/09 00:08:26;;;;;;;;;;;9.00;81.20;;;;;;5000467;28;19917;-78
2022/10/09 00:10:52;;;;;;;;;;;9.00;81.40;;;;;;5008206;28;19918;-76
2022/10/09 00:13:18;;;;;;;;;;;9.00;81.30;;;;;;5013301;28;19975;-78
2022/10/09 00:15:44;;;;;;;;;;;8.90;81.40;;;;;;5010769;28;19928;-77
2022/10/09 00:18:10;;;;;;;;;;;8.80;81.50;;;;;;5015521;28;20373;-77
2022/10/09 00:20:36;;;;;;;;;;;8.70;81.70;;;;;;5044206;23;19932;-86
2022/10/09 00:23:02;;;;;;;;;;;8.60;82.00;;;;;;5051782;28;20363;-85
2022/10/09 00:25:27;;;;;;;;;;;8.60;82.00;;;;;;5061048;28;19956;-86
2022/10/09 00:27:57;;;;;;;;;;;8.80;81.70;;;;;;5059868;28;19919;-86
2022/10/09 00:30:23;;;;;;;;;;;8.80;81.50;;;;;;5066696;28;19916;-85
2022/10/09 00:32:50;;;;;;;;;;;8.60;81.80;;;;;;5080904;28;19913;-85
2022/10/09 00:35:16;;;;;;;;;;;8.60;82.20;;;;;;5082067;28;19979;-86
2022/10/09 00:37:41;;;;;;;;;;;8.60;82.30;;;;;;5076415;28;19960;-86
2022/10/09 00:40:07;;;;;;;;;;;8.60;82.40;;;;;;5074655;28;19947;-86
2022/10/09 00:42:57;;;;;;;;;;;8.70;82.40;;;;;;5092712;28;19913;-85
2022/10/09 00:45:22;;;;;;;;;;;8.60;82.10;;;;;;5091043;28;19909;-85
2022/10/09 00:47:50;;;;;;;;;;;8.60;82.50;;;;;;5088994;28;20431;-85
2022/10/09 00:50:34;;;;;;;;;;;8.60;82.50;;;;;;5057499;28;19913;-85
2022/10/09 00:53:02;;;;;;;;;;;8.50;82.30;;;;;;5055725;28;20364;-84
2022/10/09 00:55:28;;;;;;;;;;;8.50;82.00;;;;;;5055823;28;20272;-85
2022/10/09 00:58:20;;;;;;;;;;;8.50;82.00;;;;;;5068328;28;19909;-85
2022/10/09 01:00:46;;;;;;;;;;;8.50;82.00;;;;;;5069691;28;20054;-85
2022/10/09 01:03:11;;;;;;;;;;;8.40;81.80;;;;;;5076249;28;19967;-85
2022/10/09 01:05:47;;;;;;;;;;;8.30;81.90;;;;;;5066623;28;20298;-85
2022/10/09 01:08:18;;;;;;;;;;;8.30;82.10;;;;;;5061729;28;20010;-84
2022/10/09 01:10:52;;;;;;;;;;;8.20;82.20;;;;;;5070938;28;19909;-84
2022/10/09 01:13:27;;;;;;;;;;;8.20;81.90;;;;;;5072565;28;19915;-85
2022/10/09 01:15:54;;;;;;;;;;;8.20;81.80;;;;;;5072451;28;20480;-85
2022/10/09 01:18:24;;;;;;;;;;;8.10;82.20;;;;;;5071101;28;20405;-84
2022/10/09 01:20:59;;;;;;;;;;;8.10;82.60;;;;;;5064624;28;19923;-84
2022/10/09 01:23:51;;;;;;;;;;;8.10;82.10;;;;;;5053500;28;19913;-84
2022/10/09 01:26:19;;;;;;;;;;;8.20;82.00;;;;;;5053070;28;19962;-85
2022/10/09 01:28:47;;;;;;;;;;;8.20;82.10;;;;;;5071016;28;20007;-85
2022/10/09 01:31:14;;;;;;;;;;;8.10;82.30;;;;;;5072973;28;19908;-85
2022/10/09 01:33:39;;;;;;;;;;;8.10;82.00;;;;;;5072466;28;19908;-84
2022/10/09 01:36:06;;;;;;;;;;;8.00;82.00;;;;;;5058420;28;19927;-85
2022/10/09 01:38:32;;;;;;;;;;;8.10;82.00;;;;;;5073288;28;19908;-86
2022/10/09 01:40:58;;;;;;;;;;;8.10;81.60;;;;;;5073098;28;19909;-85
2022/10/09 01:43:23;;;;;;;;;;;8.20;81.30;;;;;;5074871;28;19912;-85
2022/10/09 01:45:49;;;;;;;;;;;8.30;81.00;;;;;;5072751;28;20405;-85
2022/10/09 01:48:24;;;;;;;;;;;8.10;81.60;;;;;;5072107;28;19920;-84
2022/10/09 01:51:00;;;;;;;;;;;8.00;82.10;;;;;;5052076;28;19920;-85
2022/10/09 01:53:26;;;;;;;;;;;8.10;81.90;;;;;;5069088;28;20020;-84
2022/10/09 01:56:07;;;;;;;;;;;8.00;82.50;;;;;;5055123;28;20006;-84
2022/10/09 01:58:45;;;;;;;;;;;8.00;82.40;;;;;;5052590;28;19999;-85
2022/10/09 02:01:14;;;;;;;;;;;7.90;82.40;;;;;;5054985;28;20363;-84
2022/10/09 02:03:40;;;;;;;;;;;8.00;82.30;;;;;;5052199;28;20298;-85
2022/10/09 02:06:08;;;;;;;;;;;7.90;82.20;;;;;;5055709;28;19913;-85
2022/10/09 02:08:35;;;;;;;;;;;7.90;82.30;;;;;;5071072;28;20445;-85
2022/10/09 02:11:02;;;;;;;;;;;7.90;82.20;;;;;;5062591;28;19915;-85
2022/10/09 02:13:28;;;;;;;;;;;7.80;82.10;;;;;;5063184;28;19975;-85
2022/10/09 02:16:00;;;;;;;;;;;7.70;82.80;;;;;;5063183;28;19913;-84
2022/10/09 02:18:49;;;;;;;;;;;7.70;82.60;;;;;;5059280;28;19932;-85
2022/10/09 02:21:17;;;;;;;;;;;7.80;82.50;;;;;;5047995;28;19917;-84
2022/10/09 02:23:44;;;;;;;;;;;7.80;82.30;;;;;;5078217;28;20394;-84
2022/10/09 02:26:11;;;;;;;;;;;7.80;82.30;;;;;;5057465;28;19932;-84
2022/10/09 02:28:37;;;;;;;;;;;7.80;82.50;;;;;;5056116;28;19923;-85
2022/10/09 02:31:22;;;;;;;;;;;7.80;82.40;;;;;;5057761;28;19995;-84
2022/10/09 02:33:58;;;;;;;;;;;7.70;82.90;;;;;;5059855;28;19909;-86
2022/10/09 02:36:24;;;;;;;;;;;7.70;82.60;;;;;;5066802;28;19975;-86
2022/10/09 02:38:50;;;;;;;;;;;7.70;82.70;;;;;;5065191;28;19940;-85
2022/10/09 02:41:15;;;;;;;;;;;7.70;82.70;;;;;;5064833;28;19919;-85
2022/10/09 02:43:41;;;;;;;;;;;7.80;82.60;;;;;;5065367;28;19919;-84
2022/10/09 02:46:06;;;;;;;;;;;7.70;82.70;;;;;;5063953;28;19968;-84
2022/10/09 02:48:32;;;;;;;;;;;7.60;82.50;;;;;;5062828;28;19913;-86
2022/10/09 02:50:58;;;;;;;;;;;7.60;82.50;;;;;;5079075;28;19960;-85
2022/10/09 02:53:23;;;;;;;;;;;7.60;82.30;;;;;;5083452;28;19909;-85
2022/10/09 02:55:48;;;;;;;;;;;7.70;82.30;;;;;;5082014;28;19913;-85
2022/10/09 02:58:14;;;;;;;;;;;7.60;82.40;;;;;;5081014;28;20009;-85
2022/10/09 03:00:39;;;;;;;;;;;7.60;82.40;;;;;;5079899;28;19909;-85
2022/10/09 03:03:05;;;;;;;;;;;7.60;82.50;;;;;;5078888;28;20313;-85
2022/10/09 03:05:30;;;;;;;;;;;7.60;82.30;;;;;;5055959;28;20337;-85
2022/10/09 03:07:56;;;;;;;;;;;7.60;82.00;;;;;;5058807;28;19960;-86
2022/10/09 03:10:21;;;;;;;;;;;7.50;82.30;;;;;;5057018;28;19916;-84
2022/10/09 03:12:47;;;;;;;;;;;7.50;82.80;;;;;;5056332;28;19995;-85
2022/10/09 03:15:12;;;;;;;;;;;7.60;82.50;;;;;;5056815;28;19913;-85
2022/10/09 03:17:38;;;;;;;;;;;7.60;82.10;;;;;;5055509;28;19948;-84
2022/10/09 03:20:04;;;;;;;;;;;7.60;81.80;;;;;;5055288;28;19928;-84
2022/10/09 03:22:29;;;;;;;;;;;7.70;81.70;;;;;;5088568;28;19908;-85
2022/10/09 03:24:55;;;;;;;;;;;7.60;82.20;;;;;;5086403;28;19916;-86
2022/10/09 03:27:20;;;;;;;;;;;7.60;82.40;;;;;;5053324;28;20007;-85
2022/10/09 03:29:46;;;;;;;;;;;7.50;83.00;;;;;;5054566;28;19920;-86
2022/10/09 03:32:11;;;;;;;;;;;7.60;83.10;;;;;;5067496;28;19962;-86
2022/10/09 03:34:37;;;;;;;;;;;7.50;82.90;;;;;;5074262;28;19960;-87
2022/10/09 03:37:02;;;;;;;;;;;7.40;82.80;;;;;;5079330;28;19908;-86
2022/10/09 03:39:27;;;;;;;;;;;7.40;82.90;;;;;;5086002;28;20103;-85
2022/10/09 03:41:53;;;;;;;;;;;7.30;83.00;;;;;;5085270;28;19917;-87
2022/10/09 03:44:19;;;;;;;;;;;7.30;82.80;;;;;;5086594;28;19976;-86
2022/10/09 03:46:45;;;;;;;;;;;7.20;82.80;;;;;;5082252;28;19909;-86
2022/10/09 03:49:11;;;;;;;;;;;7.30;82.50;;;;;;5078543;28;19916;-86
2022/10/09 03:51:36;;;;;;;;;;;7.30;82.50;;;;;;5082327;28;20401;-87
2022/10/09 03:54:01;;;;;;;;;;;7.20;82.60;;;;;;5082530;28;19915;-86
2022/10/09 03:56:27;;;;;;;;;;;7.10;82.70;;;;;;5079801;28;19955;-86
2022/10/09 03:58:53;;;;;;;;;;;7.20;82.60;;;;;;5076803;28;19935;-87
2022/10/09 04:01:18;;;;;;;;;;;7.10;82.70;;;;;;5061230;28;19917;-86
2022/10/09 04:03:44;;;;;;;;;;;7.10;82.80;;;;;;5062993;28;20018;-85
2022/10/09 04:06:09;;;;;;;;;;;7.30;82.60;;;;;;5069803;28;19909;-85
2022/10/09 04:08:35;;;;;;;;;;;7.10;82.40;;;;;;5088833;28;19921;-86
2022/10/09 04:11:00;;;;;;;;;;;6.90;83.00;;;;;;5094399;28;20393;-86
2022/10/09 04:13:26;;;;;;;;;;;7.00;83.10;;;;;;5056675;28;20580;-86
2022/10/09 04:15:52;;;;;;;;;;;6.90;82.80;;;;;;5088260;28;19913;-86
2022/10/09 04:18:18;;;;;;;;;;;6.90;82.60;;;;;;5074171;28;19962;-87
2022/10/09 04:20:48;;;;;;;;;;;6.80;82.60;;;;;;5072795;28;19916;-86
2022/10/09 04:23:13;;;;;;;;;;;6.70;82.70;;;;;;5075888;28;19962;-85
2022/10/09 04:25:39;;;;;;;;;;;6.70;82.50;;;;;;5076811;28;19912;-86
2022/10/09 04:28:04;;;;;;;;;;;6.60;82.60;;;;;;5067764;28;20482;-85
2022/10/09 04:30:29;;;;;;;;;;;6.60;82.80;;;;;;5054187;28;19959;-85
2022/10/09 04:32:55;;;;;;;;;;;6.80;82.50;;;;;;5057750;28;19998;-85
2022/10/09 04:35:20;;;;;;;;;;;6.70;82.80;;;;;;5072595;28;19916;-85
2022/10/09 04:37:46;;;;;;;;;;;6.80;82.50;;;;;;5075786;28;19920;-85
2022/10/09 04:40:11;;;;;;;;;;;6.70;82.30;;;;;;5065527;28;19913;-86
2022/10/09 04:42:37;;;;;;;;;;;6.60;82.80;;;;;;5056142;28;19909;-86
2022/10/09 04:45:03;;;;;;;;;;;6.80;83.30;;;;;;5058065;28;19916;-85
2022/10/09 04:47:28;;;;;;;;;;;6.80;82.50;;;;;;5095723;28;19928;-85
2022/10/09 04:49:54;;;;;;;;;;;6.80;82.10;;;;;;5074321;28;19999;-85
2022/10/09 04:52:19;;;;;;;;;;;6.80;82.20;;;;;;5060906;28;19909;-86
2022/10/09 04:54:44;;;;;;;;;;;6.70;82.30;;;;;;5061595;28;20286;-85
2022/10/09 04:57:10;;;;;;;;;;;6.70;82.50;;;;;;5059732;28;19960;-85
2022/10/09 04:59:35;;;;;;;;;;;6.80;82.00;;;;;;5059416;28;19913;-86
2022/10/09 05:02:01;;;;;;;;;;;6.70;82.10;;;;;;5060103;28;19908;-86
2022/10/09 05:04:26;;;;;;;;;;;6.60;82.20;;;;;;5072838;28;19912;-86
2022/10/09 05:06:52;;;;;;;;;;;6.50;82.60;;;;;;5078189;28;19928;-86
2022/10/09 05:09:17;;;;;;;;;;;6.60;82.60;;;;;;5078187;28;19912;-86
2022/10/09 05:11:43;;;;;;;;;;;6.50;82.80;;;;;;5079684;28;19913;-85
2022/10/09 05:14:08;;;;;;;;;;;6.50;82.70;;;;;;5084604;28;19912;-87
2022/10/09 05:16:34;;;;;;;;;;;6.50;82.90;;;;;;5090071;28;19912;-87
2022/10/09 05:18:59;;;;;;;;;;;6.50;83.10;;;;;;5061623;28;19909;-86
2022/10/09 05:21:28;;;;;;;;;;;6.50;83.00;;;;;;5094787;28;19992;-86
2022/10/09 05:23:54;;;;;;;;;;;6.50;83.00;;;;;;5095389;28;19913;-86
2022/10/09 05:26:20;;;;;;;;;;;6.50;82.80;;;;;;5093762;28;19919;-85
2022/10/09 05:28:46;;;;;;;;;;;6.50;82.50;;;;;;5092361;28;19913;-85
2022/10/09 05:31:20;;;;;;;;;;;6.40;82.30;;;;;;5061509;28;20003;-86
2022/10/09 05:33:46;;;;;;;;;;;6.30;82.30;;;;;;5060257;28;19916;-85
2022/10/09 05:36:11;;;;;;;;;;;6.40;82.30;;;;;;5058984;28;19992;-85
2022/10/09 05:38:37;;;;;;;;;;;6.40;82.30;;;;;;5058021;28;19916;-86
2022/10/09 05:41:04;;;;;;;;;;;6.50;82.20;;;;;;5063438;28;19916;-86
2022/10/09 05:43:37;;;;;;;;;;;6.40;82.30;;;;;;5061525;28;19935;-86
2022/10/09 05:46:05;;;;;;;;;;;6.40;82.00;;;;;;5063230;28;19915;-86
2022/10/09 05:48:31;;;;;;;;;;;6.30;82.50;;;;;;5078013;28;20427;-86
2022/10/09 05:51:07;;;;;;;;;;;6.50;82.30;;;;;;5078297;28;19908;-87
2022/10/09 05:53:32;;;;;;;;;;;6.50;82.20;;;;;;5080622;28;19915;-86
2022/10/09 05:56:07;;;;;;;;;;;6.50;81.90;;;;;;5081057;28;19987;-87
2022/10/09 05:58:33;;;;;;;;;;;6.40;82.40;;;;;;5077198;28;19913;-87
2022/10/09 06:00:59;;;;;;;;;;;6.40;82.60;;;;;;5059345;28;19917;-85
2022/10/09 06:03:24;;;;;;;;;;;6.30;82.90;;;;;;5074753;28;19912;-86
2022/10/09 06:05:49;;;;;;;;;;;6.40;83.20;;;;;;5073088;28;19913;-85
2022/10/09 06:08:15;;;;;;;;;;;6.50;83.30;;;;;;5057949;28;19924;-84
2022/10/09 06:10:40;;;;;;;;;;;6.40;83.40;;;;;;5053065;28;20016;-86
2022/10/09 06:13:06;;;;;;;;;;;6.30;83.60;;;;;;5052776;28;20111;-85
2022/10/09 06:15:31;;;;;;;;;;;6.40;83.10;;;;;;5053374;28;20295;-86
2022/10/09 06:17:57;;;;;;;;;;;6.50;83.00;;;;;;5085748;28;19909;-86
2022/10/09 06:20:22;;;;;;;;;;;6.40;83.10;;;;;;5086509;28;19917;-86
2022/10/09 06:22:48;;;;;;;;;;;6.50;82.80;;;;;;5062745;22;19925;-78
2022/10/09 06:25:13;;;;;;;;;;;6.50;82.80;;;;;;5040012;28;19913;-78
2022/10/09 06:27:38;;;;;;;;;;;6.50;82.90;;;;;;5022054;28;19944;-78
2022/10/09 06:30:04;;;;;;;;;;;6.50;82.80;;;;;;5012491;28;19917;-77
2022/10/09 06:32:30;;;;;;;;;;;6.60;82.60;;;;;;5013907;28;19963;-78
2022/10/09 06:34:56;;;;;;;;;;;6.50;82.90;;;;;;5014205;28;19909;-77
2022/10/09 06:37:21;;;;;;;;;;;6.60;83.30;;;;;;5013917;28;19917;-78
2022/10/09 06:39:47;;;;;;;;;;;6.60;83.40;;;;;;5013817;28;19998;-78
2022/10/09 06:42:12;;;;;;;;;;;6.80;83.40;;;;;;5014844;28;20377;-77
2022/10/09 06:44:38;;;;;;;;;;;6.60;83.50;;;;;;5015577;28;20265;-78
2022/10/09 06:47:03;;;;;;;;;;;6.70;83.90;;;;;;5013940;28;19976;-78
2022/10/09 06:49:29;;;;;;;;;;;6.90;83.40;;;;;;5002790;28;19914;-78
2022/10/09 06:51:54;;;;;;;;;;;6.90;83.50;;;;;;4995510;28;19913;-78
2022/10/09 06:54:20;;;;;;;;;;;6.80;84.10;;;;;;4994384;28;20426;-78
2022/10/09 06:56:45;;;;;;;;;;;6.80;84.50;;;;;;4994013;28;20262;-78
2022/10/09 06:59:10;;;;;;;;;;;7.00;84.90;;;;;;5003370;28;19918;-78
2022/10/09 07:01:36;;;;;;;;;;;7.00;84.60;;;;;;5011789;28;20297;-78
2022/10/09 07:04:08;;;;;;;;;;;6.90;84.60;;;;;;5034029;28;19913;-78
2022/10/09 07:06:36;;;;;;;;;;;7.00;84.70;;;;;;5039164;28;19977;-78
2022/10/09 07:09:03;;;;;;;;;;;7.00;85.00;;;;;;5037468;28;20286;-78
2022/10/09 07:11:33;;;;;;;;;;;7.00;85.40;;;;;;5039636;28;19909;-78
2022/10/09 07:14:00;;;;;;;;;;;7.10;86.00;;;;;;5026190;28;19913;-78
2022/10/09 07:16:27;;;;;;;;;;;7.10;86.10;;;;;;5018411;28;19910;-78
2022/10/09 07:18:52;;;;;;;;;;;7.10;86.10;;;;;;5016652;28;20174;-77
2022/10/09 07:21:18;;;;;;;;;;;7.10;86.50;;;;;;5012204;28;20338;-77
2022/10/09 07:23:44;;;;;;;;;;;7.20;87.20;;;;;;5012747;28;20289;-78
2022/10/09 07:26:17;;;;;;;;;;;7.30;87.50;;;;;;5013242;28;19960;-77
2022/10/09 07:28:43;;;;;;;;;;;7.30;87.70;;;;;;5011715;28;19924;-77
2022/10/09 07:31:09;;;;;;;;;;;7.40;88.00;;;;;;5013653;28;20388;-77
2022/10/09 07:33:34;;;;;;;;;;;7.50;88.10;;;;;;5012911;28;19913;-78
2022/10/09 07:36:01;;;;;;;;;;;7.60;88.10;;;;;;5012530;28;19910;-77
2022/10/09 07:38:26;;;;;;;;;;;7.70;88.10;;;;;;5012741;28;20269;-77
2022/10/09 07:40:52;;;;;;;;;;;7.80;88.10;;;;;;5012922;28;19910;-77
2022/10/09 07:43:18;;;;;;;;;;;8.00;88.10;;;;;;5012043;28;19917;-78
2022/10/09 07:45:46;;;;;;;;;;;8.10;87.70;;;;;;5018062;28;19909;-78
2022/10/09 07:48:15;;;;;;;;;;;8.30;87.40;;;;;;5019141;28;20352;-78
2022/10/09 07:50:40;;;;;;;;;;;8.30;87.50;;;;;;5017421;28;19910;-78
2022/10/09 07:53:07;;;;;;;;;;;8.30;87.30;;;;;;5019168;28;19909;-78
2022/10/09 07:55:33;;;;;;;;;;;8.40;87.20;;;;;;5016983;28;20397;-78
2022/10/09 07:57:58;;;;;;;;;;;8.40;86.80;;;;;;5016431;28;19919;-79
2022/10/09 08:00:24;;;;;;;;;;;8.50;86.60;;;;;;5015755;28;20408;-78
2022/10/09 08:02:49;;;;;;;;;;;8.50;86.50;;;;;;5016321;28;19916;-79
2022/10/09 08:05:15;;;;;;;;;;;8.60;85.90;;;;;;5017390;28;19920;-78
2022/10/09 08:07:40;;;;;;;;;;;8.70;85.60;;;;;;5016057;28;19917;-78
2022/10/09 08:10:06;;;;;;;;;;;8.90;85.80;;;;;;5014595;28;20293;-77
2022/10/09 08:12:31;;;;;;;;;;;9.00;85.40;;;;;;5013120;28;19917;-79
2022/10/09 08:14:57;;;;;;;;;;;9.10;85.20;;;;;;5017210;28;19909;-78
2022/10/09 08:17:22;;;;;;;;;;;9.20;85.10;;;;;;5016800;28;19910;-79
2022/10/09 08:19:48;;;;;;;;;;;9.20;84.50;;;;;;5012905;28;19936;-79
2022/10/09 08:22:13;;;;;;;;;;;9.20;84.50;;;;;;5005892;28;19951;-78
2022/10/09 08:24:39;;;;;;;;;;;9.30;84.60;;;;;;5016323;28;19997;-79
2022/10/09 08:27:04;;;;;;;;;;;9.40;84.70;;;;;;5012160;28;19917;-77
2022/10/09 08:29:30;;;;;;;;;;;9.50;84.30;;;;;;5012570;28;19918;-77
2022/10/09 08:31:56;;;;;;;;;;;9.60;84.00;;;;;;5011359;28;19909;-77
2022/10/09 08:34:21;;;;;;;;;;;9.80;82.80;;;;;;5014535;28;19916;-78
2022/10/09 08:36:50;;;;;;;;;;;9.70;83.20;;;;;;5014976;28;19916;-78
2022/10/09 08:39:16;;;;;;;;;;;9.80;83.40;;;;;;5023383;28;20134;-78
2022/10/09 08:41:49;;;;;;;;;;;10.00;83.00;;;;;;5027745;28;19936;-78
2022/10/09 08:44:19;;;;;;;;;;;10.00;83.50;;;;;;5025403;28;19913;-78
2022/10/09 08:46:48;;;;;;;;;;;10.00;83.30;;;;;;5019236;28;20385;-78
2022/10/09 08:49:21;;;;;;;;;;;10.10;83.00;;;;;;5013665;28;19921;-78
2022/10/09 08:51:47;;;;;;;;;;;10.20;81.90;;;;;;5017008;28;19917;-77
2022/10/09 08:54:31;;;;;;;;;;;10.20;82.10;;;;;;5014137;28;19913;-78
2022/10/09 08:56:59;;;;;;;;;;;10.60;80.80;;;;;;5013234;28;19991;-77
2022/10/09 08:59:25;;;;;;;;;;;10.50;80.90;;;;;;5012422;28;19910;-77
2022/10/09 09:02:10;;;;;;;;;;;10.60;80.40;;;;;;5011789;28;19936;-78
2022/10/09 09:04:54;;;;;;;;;;;10.60;80.70;;;;;;5013545;28;19985;-78
2022/10/09 09:07:19;;;;;;;;;;;10.70;81.20;;;;;;5011317;28;19920;-78
2022/10/09 09:09:51;;;;;;;;;;;10.70;81.00;;;;;;5013190;28;20004;-78
2022/10/09 09:12:25;;;;;;;;;;;10.80;81.40;;;;;;5012683;28;19913;-79
2022/10/09 09:15:14;;;;;;;;;;;10.90;80.90;;;;;;5013397;28;19914;-77
2022/10/09 09:17:39;;;;;;;;;;;11.00;80.80;;;;;;4992068;28;19918;-77
2022/10/09 09:20:11;;;;;;;;;;;11.10;80.70;;;;;;4996638;28;19952;-78
2022/10/09 09:22:39;;;;;;;;;;;11.30;80.10;;;;;;4997178;28;20005;-78
2022/10/09 09:25:40;;;;;;;;;;;11.50;79.10;;;;;;5010296;28;19924;-79
2022/10/09 09:28:26;;;;;;;;;;;11.50;79.60;;;;;;4931196;29;19966;-78
2022/10/09 09:30:56;;;;;;;;;;;11.60;79.40;;;;;;5005967;28;20377;-79
2022/10/09 09:33:26;;;;;;;;;;;11.70;79.00;;;;;;4994759;28;19973;-78
2022/10/09 09:36:04;;;;;;;;;;;11.70;77.80;;;;;;4994776;28;19910;-79
2022/10/09 09:38:30;;;;;;;;;;;11.90;77.50;;;;;;5004906;28;19936;-79
2022/10/09 09:40:55;;;;;;;;;;;12.10;76.60;;;;;;5012595;28;20471;-76
2022/10/09 09:43:23;;;;;;;;;;;12.10;76.90;;;;;;5014544;28;19948;-79
2022/10/09 09:45:56;;;;;;;;;;;12.20;77.00;;;;;;5015050;28;19910;-78
2022/10/09 09:48:33;;;;;;;;;;;12.10;76.40;;;;;;5003515;28;20068;-78
2022/10/09 09:50:59;;;;;;;;;;;12.10;76.40;;;;;;5010367;28;20001;-78
2022/10/09 09:53:28;;;;;;;;;;;12.20;76.20;;;;;;5013422;28;19914;-78
2022/10/09 09:55:54;;;;;;;;;;;12.30;75.60;;;;;;5013215;28;19947;-78
2022/10/09 09:58:20;;;;;;;;;;;12.50;75.40;;;;;;5014298;28;19913;-77
2022/10/09 10:00:53;;;;;;;;;;;12.50;75.40;;;;;;5014817;28;19937;-77
2022/10/09 10:03:20;;;;;;;;;;;12.50;75.60;;;;;;5013808;28;19909;-76
2022/10/09 10:05:45;;;;;;;;;;;12.60;75.10;;;;;;5014130;28;20000;-77
2022/10/09 10:08:11;;;;;;;;;;;12.80;74.90;;;;;;5011719;28;19921;-76
2022/10/09 10:10:42;;;;;;;;;;;12.80;74.20;;;;;;5013045;28;19921;-77
2022/10/09 10:13:14;;;;;;;;;;;12.80;74.00;;;;;;5015101;28;19909;-77
2022/10/09 10:15:46;;;;;;;;;;;12.90;73.10;;;;;;5015169;28;19910;-78
2022/10/09 10:18:13;;;;;;;;;;;13.00;72.80;;;;;;5014930;28;19914;-77
2022/10/09 10:20:50;;;;;;;;;;;12.90;74.00;;;;;;5020012;28;19917;-78
2022/10/09 10:23:21;;;;;;;;;;;13.10;72.20;;;;;;5017751;28;20384;-78
2022/10/09 10:25:46;;;;;;;;;;;13.10;71.20;;;;;;5016514;28;19920;-78
2022/10/09 10:28:14;;;;;;;;;;;13.30;70.20;;;;;;5015179;28;19961;-78
2022/10/09 10:30:41;;;;;;;;;;;13.30;72.20;;;;;;5014085;28;20285;-78
2022/10/09 10:33:20;;;;;;;;;;;13.20;71.60;;;;;;5018022;28;20385;-78
2022/10/09 10:35:48;;;;;;;;;;;13.20;71.00;;;;;;5019956;28;19913;-77
2022/10/09 10:38:21;;;;;;;;;;;13.50;70.20;;;;;;5019591;28;19924;-79
2022/10/09 10:41:06;;;;;;;;;;;13.40;70.80;;;;;;5020122;28;20451;-79
2022/10/09 10:43:39;;;;;;;;;;;13.30;71.80;;;;;;5016005;28;19921;-78
2022/10/09 10:46:20;;;;;;;;;;;13.30;71.50;;;;;;5013129;28;19963;-78
2022/10/09 10:48:46;;;;;;;;;;;13.30;70.80;;;;;;5018614;28;19924;-79
2022/10/09 10:51:30;;;;;;;;;;;13.30;70.40;;;;;;5016893;28;20545;-79
2022/10/09 10:54:07;;;;;;;;;;;13.30;70.30;;;;;;5017891;28;19922;-79
2022/10/09 10:56:41;;;;;;;;;;;13.40;70.70;;;;;;5013158;28;20149;-78
2022/10/09 10:59:06;;;;;;;;;;;13.60;69.30;;;;;;5013998;28;20370;-79
2022/10/09 11:01:37;;;;;;;;;;;13.60;69.90;;;;;;5023545;28;19959;-81
2022/10/09 11:04:20;;;;;;;;;;;13.60;69.30;;;;;;5022953;28;20300;-79
2022/10/09 11:06:52;;;;;;;;;;;13.80;68.10;;;;;;5019747;28;20385;-79
2022/10/09 11:09:44;;;;;;;;;;;13.70;68.50;;;;;;5010277;28;20289;-80
2022/10/09 11:12:23;;;;;;;;;;;13.60;68.90;;;;;;5018653;28;20001;-79
2022/10/09 11:15:00;;;;;;;;;;;13.70;69.30;;;;;;5027052;28;19909;-81
2022/10/09 11:17:31;;;;;;;;;;;13.80;69.50;;;;;;5025781;28;19940;-81
2022/10/09 11:20:02;;;;;;;;;;;13.70;69.80;;;;;;5024630;28;20250;-80
2022/10/09 11:22:34;;;;;;;;;;;13.80;67.50;;;;;;5024013;28;19918;-80
2022/10/09 11:25:20;;;;;;;;;;;14.10;64.00;;;;;;5005893;28;19914;-78
2022/10/09 11:28:03;;;;;;;;;;;14.30;62.50;;;;;;5009339;28;19962;-79
2022/10/09 11:30:31;;;;;;;;;;;14.50;62.30;;;;;;5015594;28;19910;-80
2022/10/09 11:33:13;;;;;;;;;;;14.40;63.60;;;;;;5021172;28;19969;-80
2022/10/09 11:35:42;;;;;;;;;;;14.40;62.20;;;;;;5004271;28;19920;-80
2022/10/09 11:38:23;;;;;;;;;;;14.50;61.50;;;;;;5012917;28;19913;-80
2022/10/09 11:40:48;;;;;;;;;;;14.30;61.60;;;;;;5011148;28;20558;-79
2022/10/09 11:43:17;;;;;;;;;;;14.20;62.20;;;;;;5010984;28;19952;-80
2022/10/09 11:45:46;;;;;;;;;;;14.30;62.00;;;;;;5008823;28;19914;-81
2022/10/09 11:48:20;;;;;;;;;;;14.40;61.90;;;;;;5008986;28;19922;-81
2022/10/09 11:50:52;;;;;;;;;;;14.30;62.90;;;;;;5005424;28;20266;-81
2022/10/09 11:53:19;;;;;;;;;;;14.30;62.80;;;;;;5008799;28;19917;-81
2022/10/09 11:55:47;;;;;;;;;;;14.20;62.60;;;;;;5009166;28;19921;-81
2022/10/09 11:58:18;;;;;;;;;;;14.30;61.90;;;;;;5011948;28;19913;-81
2022/10/09 12:00:45;;;;;;;;;;;14.30;63.50;;;;;;5010459;28;19914;-80
2022/10/09 12:03:32;;;;;;;;;;;14.20;60.80;;;;;;5009957;28;19914;-78
2022/10/09 12:06:01;;;;;;;;;;;14.40;61.90;;;;;;5011263;28;19917;-80
2022/10/09 12:08:27;;;;;;;;;;;14.40;60.10;;;;;;5018938;28;19961;-80
2022/10/09 12:10:54;;;;;;;;;;;14.50;60.70;;;;;;5016873;28;19949;-79
2022/10/09 12:13:35;;;;;;;;;;;14.50;60.80;;;;;;5018154;28;21357;-81
2022/10/09 12:16:01;;;;;;;;;;;14.50;60.70;;;;;;5007010;28;20000;-81
2022/10/09 12:18:28;;;;;;;;;;;14.60;60.60;;;;;;5011822;28;19914;-80
2022/10/09 12:20:55;;;;;;;;;;;14.50;61.00;;;;;;5005799;28;19963;-81
2022/10/09 12:23:23;;;;;;;;;;;14.50;59.70;;;;;;4991556;23;19934;-83
2022/10/09 12:25:48;;;;;;;;;;;14.50;59.70;;;;;;4971259;28;19922;-84
2022/10/09 12:28:17;;;;;;;;;;;14.50;60.70;;;;;;4965572;28;20387;-85
2022/10/09 12:30:45;;;;;;;;;;;14.50;60.40;;;;;;4980785;28;20381;-83
2022/10/09 12:33:13;;;;;;;;;;;14.60;60.80;;;;;;4972106;28;19926;-87
2022/10/09 12:35:40;;;;;;;;;;;14.60;61.00;;;;;;4987047;28;19914;-83
2022/10/09 12:38:34;;;;;;;;;;;14.60;59.90;;;;;;4974597;28;19914;-84
2022/10/09 12:41:04;;;;;;;;;;;14.60;60.50;;;;;;4963756;28;19929;-84
2022/10/09 12:43:31;;;;;;;;;;;14.70;59.20;;;;;;4971300;28;19924;-83
2022/10/09 12:45:57;;;;;;;;;;;14.70;60.60;;;;;;4966298;28;19979;-83
2022/10/09 12:48:24;;;;;;;;;;;14.70;60.10;;;;;;4967549;28;20412;-83
2022/10/09 12:50:50;;;;;;;;;;;14.70;60.60;;;;;;4966790;28;19944;-83
2022/10/09 12:53:19;;;;;;;;;;;14.80;61.70;;;;;;4966162;28;21394;-84
2022/10/09 12:55:47;;;;;;;;;;;14.60;61.70;;;;;;4970192;28;20020;-84
2022/10/09 12:58:22;;;;;;;;;;;14.70;62.10;;;;;;4968512;28;19918;-84
2022/10/09 13:00:49;;;;;;;;;;;14.80;60.60;;;;;;4968207;28;19914;-84
2022/10/09 13:03:22;;;;;;;;;;;14.80;62.00;;;;;;4969580;28;19973;-84
2022/10/09 13:05:47;;;;;;;;;;;14.80;60.80;;;;;;4974590;28;19961;-84
2022/10/09 13:08:24;;;;;;;;;;;14.70;60.10;;;;;;4968634;28;19918;-84
2022/10/09 13:10:50;;;;;;;;;;;14.80;60.00;;;;;;4970235;28;19918;-84
2022/10/09 13:13:25;;;;;;;;;;;14.70;61.80;;;;;;4972591;28;19924;-84
2022/10/09 13:16:01;;;;;;;;;;;14.80;60.20;;;;;;4974797;28;19914;-85
2022/10/09 13:18:27;;;;;;;;;;;14.90;60.30;;;;;;4970063;28;20012;-85
2022/10/09 13:21:25;;;;;;;;;;;14.90;60.10;;;;;;4974659;28;19953;-85
2022/10/09 13:23:51;;;;;;;;;;;14.90;60.20;;;;;;4954081;28;20017;-85
2022/10/09 13:26:22;;;;;;;;;;;14.90;60.40;;;;;;4962568;28;19946;-84
2022/10/09 13:28:47;;;;;;;;;;;15.00;58.90;;;;;;4967844;28;19925;-84
2022/10/09 13:31:12;;;;;;;;;;;15.00;59.30;;;;;;4969137;28;19914;-85
2022/10/09 13:33:38;;;;;;;;;;;14.90;60.00;;;;;;4963348;28;19920;-85
2022/10/09 13:36:03;;;;;;;;;;;14.80;60.40;;;;;;4965252;28;19953;-84
2022/10/09 13:38:29;;;;;;;;;;;15.00;58.10;;;;;;4969358;28;19928;-84
2022/10/09 13:40:55;;;;;;;;;;;15.00;58.80;;;;;;4979194;28;19941;-84
2022/10/09 13:43:22;;;;;;;;;;;15.00;58.10;;;;;;4970254;28;19946;-84
2022/10/09 13:45:48;;;;;;;;;;;15.10;58.30;;;;;;4969373;28;19918;-83
2022/10/09 13:48:13;;;;;;;;;;;15.00;58.00;;;;;;4971889;28;19918;-84
2022/10/09 13:50:38;;;;;;;;;;;15.00;57.70;;;;;;4971935;28;20012;-84
2022/10/09 13:53:04;;;;;;;;;;;15.00;58.10;;;;;;4972552;28;20016;-85
2022/10/09 13:55:29;;;;;;;;;;;14.90;58.10;;;;;;4972049;28;19921;-83
2022/10/09 13:57:55;;;;;;;;;;;15.00;59.00;;;;;;4966482;28;19923;-86
2022/10/09 14:00:21;;;;;;;;;;;15.00;59.60;;;;;;4969938;28;20588;-84
2022/10/09 14:02:46;;;;;;;;;;;15.00;58.60;;;;;;4972834;28;20437;-83
2022/10/09 14:05:12;;;;;;;;;;;14.90;58.10;;;;;;4965737;28;19945;-85
2022/10/09 14:07:37;;;;;;;;;;;15.10;57.80;;;;;;4967096;28;19920;-83
2022/10/09 14:10:03;;;;;;;;;;;15.10;57.80;;;;;;4965711;28;19961;-85
2022/10/09 14:12:28;;;;;;;;;;;15.00;58.20;;;;;;4974837;28;20013;-84
2022/10/09 14:14:54;;;;;;;;;;;15.00;58.10;;;;;;4978328;28;19953;-85
2022/10/09 14:17:19;;;;;;;;;;;15.10;57.50;;;;;;4970616;28;20017;-84
2022/10/09 14:19:45;;;;;;;;;;;15.10;56.50;;;;;;4975106;28;19982;-84
2022/10/09 14:22:12;;;;;;;;;;;15.10;57.90;;;;;;4971137;28;20639;-84
2022/10/09 14:24:37;;;;;;;;;;;15.00;58.20;;;;;;4975796;28;19925;-84
2022/10/09 14:27:03;;;;;;;;;;;15.00;56.60;;;;;;4972766;28;19918;-85
2022/10/09 14:29:28;;;;;;;;;;;15.10;57.10;;;;;;4967103;28;19933;-84
2022/10/09 14:31:54;;;;;;;;;;;15.10;57.10;;;;;;4975562;28;19922;-83